Time;durP1;ratioP1;P1;durP2;ratioP2;P2;SDS_P1;SDS_P2;PMS_P1;PMS_P2;Temp;Humidity;BMP_temperature;BMP_pressure;BME280_temperature;BME280_humidity;BME280_pressure;Samples;Min_cycle;Max_cycle;Signal;HPM_P1;HPM_P2
2022/03/16 00:01:26;;;;;;;;;134.00;119.50;16.30;33.10;;;;;;4996441;28;8768;-65
2022/03/16 00:03:52;;;;;;;;;132.25;124.50;16.40;32.80;;;;;;4996259;28;8841;-64
2022/03/16 00:06:19;;;;;;;;;122.00;114.00;16.40;32.40;;;;;;4996593;28;8934;-67
2022/03/16 00:08:44;;;;;;;;;125.75;114.25;16.50;32.50;;;;;;4996310;28;8895;-65
2022/03/16 00:11:10;;;;;;;;;127.75;119.25;16.30;32.10;;;;;;4995797;28;8804;-67
2022/03/16 00:13:36;;;;;;;;;145.00;132.00;16.20;32.30;;;;;;4995431;28;8837;-66
2022/03/16 00:16:02;;;;;;;;;128.75;120.00;16.30;32.40;;;;;;4996350;28;8789;-69
2022/03/16 00:18:28;;;;;;;;;130.25;119.50;16.10;32.80;;;;;;4996423;28;8858;-66
2022/03/16 00:20:54;;;;;;;;;137.25;126.75;16.30;32.60;;;;;;4996026;28;8827;-66
2022/03/16 00:23:19;;;;;;;;;156.50;146.75;16.30;33.10;;;;;;4996044;28;8808;-69
2022/03/16 00:25:45;;;;;;;;;164.50;148.25;16.20;33.20;;;;;;4996032;28;8768;-66
2022/03/16 00:28:12;;;;;;;;;144.25;128.25;16.00;33.30;;;;;;4995907;28;8785;-69
2022/03/16 00:30:38;;;;;;;;;140.25;127.00;16.00;33.50;;;;;;4996231;28;8799;-67
2022/03/16 00:33:04;;;;;;;;;141.00;133.75;16.20;33.80;;;;;;4996103;28;8792;-65
2022/03/16 00:35:30;;;;;;;;;132.50;124.25;16.30;33.60;;;;;;4996071;28;8772;-65
2022/03/16 00:37:56;;;;;;;;;131.25;119.75;16.20;33.40;;;;;;4995838;28;8799;-68
2022/03/16 00:40:22;;;;;;;;;132.00;115.50;16.10;33.40;;;;;;4995740;28;8792;-66
2022/03/16 00:42:47;;;;;;;;;122.00;111.75;16.10;33.60;;;;;;4995610;28;8875;-68
2022/03/16 00:45:13;;;;;;;;;118.00;113.50;16.10;33.60;;;;;;4995872;28;8812;-64
2022/03/16 00:47:39;;;;;;;;;122.50;110.75;15.90;33.90;;;;;;4995657;28;8777;-67
2022/03/16 00:50:06;;;;;;;;;116.50;111.75;15.90;33.70;;;;;;4995594;28;8768;-66
2022/03/16 00:52:32;;;;;;;;;118.50;111.25;16.00;34.00;;;;;;4995473;28;8795;-65
2022/03/16 00:54:58;;;;;;;;;122.25;117.25;16.10;33.80;;;;;;4994340;28;8852;-65
2022/03/16 00:57:23;;;;;;;;;116.75;112.00;16.30;34.00;;;;;;4995397;28;8935;-67
2022/03/16 00:59:49;;;;;;;;;121.25;112.75;16.40;33.70;;;;;;4995345;28;8854;-66
2022/03/16 01:02:15;;;;;;;;;119.00;109.00;16.40;33.90;;;;;;4995582;28;8788;-67
2022/03/16 01:04:41;;;;;;;;;122.00;107.75;16.40;33.30;;;;;;4995512;28;8815;-68
2022/03/16 01:07:07;;;;;;;;;125.50;115.25;16.40;33.30;;;;;;4995502;28;8780;-67
2022/03/16 01:09:34;;;;;;;;;117.00;109.00;16.50;33.20;;;;;;4995232;28;8874;-67
2022/03/16 01:12:01;;;;;;;;;114.00;104.75;16.50;33.40;;;;;;4995500;28;8803;-67
2022/03/16 01:14:27;;;;;;;;;109.00;101.75;16.50;33.50;;;;;;4995586;28;8796;-67
2022/03/16 01:16:52;;;;;;;;;111.50;102.75;16.50;33.90;;;;;;4995197;28;8781;-64
2022/03/16 01:19:18;;;;;;;;;94.75;85.00;16.50;34.10;;;;;;4995173;28;8873;-68
2022/03/16 01:21:44;;;;;;;;;85.75;75.75;16.50;33.10;;;;;;4994986;28;8804;-67
2022/03/16 01:24:10;;;;;;;;;81.25;69.00;16.50;32.70;;;;;;4995283;28;9037;-66
2022/03/16 01:26:36;;;;;;;;;78.75;67.50;16.40;33.00;;;;;;4994824;28;9459;-68
2022/03/16 01:29:03;;;;;;;;;82.25;68.75;16.20;33.40;;;;;;4995038;28;8858;-65
2022/03/16 01:31:29;;;;;;;;;93.50;84.75;15.60;34.50;;;;;;4995186;28;8788;-67
2022/03/16 01:33:54;;;;;;;;;102.50;91.00;15.50;35.20;;;;;;4995000;28;8879;-67
2022/03/16 01:36:20;;;;;;;;;100.50;90.50;15.50;35.00;;;;;;4995159;28;8768;-64
2022/03/16 01:38:47;;;;;;;;;87.50;76.50;15.80;34.60;;;;;;4995230;28;9455;-68
2022/03/16 01:41:13;;;;;;;;;86.00;77.50;15.90;34.50;;;;;;4994897;28;8787;-68
2022/03/16 01:43:39;;;;;;;;;85.00;75.75;15.70;35.00;;;;;;4994741;28;8923;-65
2022/03/16 01:46:06;;;;;;;;;80.00;69.75;15.80;35.10;;;;;;4994789;28;8764;-67
2022/03/16 01:48:31;;;;;;;;;63.25;50.50;16.10;34.70;;;;;;4994817;28;8850;-66
2022/03/16 01:50:58;;;;;;;;;69.75;55.25;15.80;35.10;;;;;;4994850;28;8784;-67
2022/03/16 01:53:27;;;;;;;;;76.00;59.50;15.80;35.20;;;;;;4994504;28;8812;-65
2022/03/16 01:55:52;;;;;;;;;54.75;45.75;15.90;34.90;;;;;;4995051;28;8800;-69
2022/03/16 01:58:19;;;;;;;;;71.00;56.75;16.00;35.00;;;;;;4994700;28;8843;-67
2022/03/16 02:00:44;;;;;;;;;71.75;58.00;15.90;35.10;;;;;;4995026;28;8785;-68
2022/03/16 02:03:11;;;;;;;;;68.00;55.00;16.20;34.80;;;;;;4993650;28;8812;-67
2022/03/16 02:05:38;;;;;;;;;69.25;55.50;16.30;34.30;;;;;;4996037;28;8768;-68
2022/03/16 02:08:05;;;;;;;;;65.00;52.00;16.40;34.30;;;;;;4998671;28;8846;-67
2022/03/16 02:10:32;;;;;;;;;62.50;51.00;16.20;34.80;;;;;;4998828;28;9458;-65
2022/03/16 02:12:58;;;;;;;;;67.50;52.50;16.20;34.60;;;;;;4998599;28;8815;-65
2022/03/16 02:15:24;;;;;;;;;66.25;52.50;15.90;35.50;;;;;;4998468;28;8773;-66
2022/03/16 02:17:54;;;;;;;;;65.25;50.50;16.20;35.10;;;;;;4998683;28;8796;-66
2022/03/16 02:20:21;;;;;;;;;66.25;53.00;16.30;34.60;;;;;;4998707;28;8772;-66
2022/03/16 02:23:01;;;;;;;;;66.25;53.25;16.50;34.50;;;;;;4998534;28;8811;-67
2022/03/16 02:25:29;;;;;;;;;68.25;53.75;16.70;34.60;;;;;;4998388;28;8773;-67
2022/03/16 02:27:56;;;;;;;;;64.50;52.25;16.50;34.50;;;;;;4998521;28;8801;-67
2022/03/16 02:30:27;;;;;;;;;51.50;42.50;16.60;35.90;;;;;;4997248;28;8769;-66
2022/03/16 02:32:54;;;;;;;;;74.00;60.75;16.30;35.20;;;;;;4998092;28;8764;-66
2022/03/16 02:35:21;;;;;;;;;75.75;65.50;16.00;36.30;;;;;;4998396;28;8807;-65
2022/03/16 02:37:48;;;;;;;;;79.25;67.50;15.80;37.40;;;;;;4998161;28;8772;-66
2022/03/16 02:40:18;;;;;;;;;80.50;73.50;15.90;36.70;;;;;;4998336;28;8769;-67
2022/03/16 02:42:44;;;;;;;;;83.50;72.25;16.00;36.80;;;;;;4998030;28;8789;-65
2022/03/16 02:45:10;;;;;;;;;85.50;77.50;16.00;36.10;;;;;;4997866;28;8772;-66
2022/03/16 02:47:39;;;;;;;;;86.25;82.00;16.20;36.00;;;;;;4997659;28;8777;-67
2022/03/16 02:50:05;;;;;;;;;92.50;89.25;16.30;35.80;;;;;;4997693;28;8792;-65
2022/03/16 02:52:31;;;;;;;;;100.00;94.75;16.30;35.60;;;;;;4998059;28;8768;-66
2022/03/16 02:54:56;;;;;;;;;106.75;100.25;16.10;35.80;;;;;;4997470;28;8942;-67
2022/03/16 02:57:22;;;;;;;;;105.75;100.00;16.10;36.80;;;;;;4997770;28;8788;-64
2022/03/16 02:59:48;;;;;;;;;111.25;103.50;16.10;35.80;;;;;;4997668;28;8788;-66
2022/03/16 03:02:14;;;;;;;;;110.00;98.25;16.00;36.00;;;;;;4997799;28;9431;-65
2022/03/16 03:04:40;;;;;;;;;111.00;103.00;16.00;36.40;;;;;;4997754;28;8827;-64
2022/03/16 03:07:06;;;;;;;;;101.00;90.75;15.90;36.10;;;;;;4997519;28;8784;-64
2022/03/16 03:09:32;;;;;;;;;93.25;87.00;15.70;37.30;;;;;;4997556;28;8862;-64
2022/03/16 03:11:59;;;;;;;;;106.75;99.75;15.40;36.90;;;;;;4997666;28;9497;-67
2022/03/16 03:14:28;;;;;;;;;114.75;106.75;15.40;37.40;;;;;;4997375;28;8768;-66
2022/03/16 03:16:53;;;;;;;;;112.00;100.75;15.60;37.00;;;;;;4997197;28;8823;-67
2022/03/16 03:19:21;;;;;;;;;104.25;96.25;15.60;36.80;;;;;;4997535;28;8780;-69
2022/03/16 03:21:47;;;;;;;;;110.50;100.25;15.80;36.20;;;;;;4997285;28;8847;-66
2022/03/16 03:24:13;;;;;;;;;117.00;101.00;16.00;36.10;;;;;;4997066;28;8843;-64
2022/03/16 03:26:39;;;;;;;;;106.00;98.25;16.10;36.20;;;;;;4997115;28;8784;-67
2022/03/16 03:29:04;;;;;;;;;107.25;96.25;16.20;36.00;;;;;;4997094;28;8776;-66
2022/03/16 03:31:30;;;;;;;;;101.25;95.00;16.30;35.60;;;;;;4997097;28;8772;-66
2022/03/16 03:33:56;;;;;;;;;97.25;90.25;16.40;35.40;;;;;;4997191;28;8768;-66
2022/03/16 03:36:22;;;;;;;;;102.25;90.50;16.40;35.40;;;;;;4997187;28;8776;-68
2022/03/16 03:38:48;;;;;;;;;104.25;94.75;16.20;35.70;;;;;;4996857;28;8803;-68
2022/03/16 03:41:13;;;;;;;;;107.25;97.75;16.10;35.60;;;;;;4996432;28;8788;-67
2022/03/16 03:43:39;;;;;;;;;99.75;89.50;16.20;35.60;;;;;;4997064;28;8839;-64
2022/03/16 03:46:05;;;;;;;;;91.50;85.50;16.30;35.30;;;;;;4996799;28;8880;-66
2022/03/16 03:48:31;;;;;;;;;94.50;90.25;16.40;35.60;;;;;;4996973;28;8791;-66
2022/03/16 03:50:57;;;;;;;;;94.00;87.25;16.30;35.40;;;;;;4996691;28;8768;-65
2022/03/16 03:53:22;;;;;;;;;83.75;74.00;16.40;35.80;;;;;;4996234;28;8811;-66
2022/03/16 03:55:49;;;;;;;;;83.75;71.00;16.30;36.20;;;;;;4996604;28;8792;-65
2022/03/16 03:58:14;;;;;;;;;83.50;75.00;16.20;36.20;;;;;;4996750;28;9462;-65
2022/03/16 04:00:40;;;;;;;;;93.75;82.00;15.80;36.60;;;;;;4996501;28;8810;-65
2022/03/16 04:03:06;;;;;;;;;91.00;84.25;15.50;37.60;;;;;;4996424;28;8804;-66
2022/03/16 04:05:32;;;;;;;;;86.75;75.00;15.40;37.60;;;;;;4996737;28;8820;-65
2022/03/16 04:07:59;;;;;;;;;95.75;88.75;15.50;37.60;;;;;;4996345;28;8792;-68
2022/03/16 04:10:25;;;;;;;;;84.50;74.50;15.70;37.10;;;;;;4996543;28;8801;-64
2022/03/16 04:12:51;;;;;;;;;87.25;84.00;15.90;36.40;;;;;;4996530;28;8788;-66
2022/03/16 04:15:18;;;;;;;;;96.50;85.00;16.10;36.10;;;;;;4996256;28;8777;-66
2022/03/16 04:17:44;;;;;;;;;89.75;80.00;16.20;36.60;;;;;;4996404;28;8788;-65
2022/03/16 04:20:09;;;;;;;;;92.25;82.50;16.30;36.80;;;;;;4996414;28;8787;-67
2022/03/16 04:22:36;;;;;;;;;86.50;80.00;16.30;37.00;;;;;;4996390;28;9435;-66
2022/03/16 04:25:03;;;;;;;;;87.75;78.00;16.30;36.90;;;;;;4996462;28;8817;-64
2022/03/16 04:27:29;;;;;;;;;99.50;96.75;16.10;37.60;;;;;;4996019;28;8776;-66
2022/03/16 04:29:55;;;;;;;;;104.00;102.25;16.00;37.50;;;;;;4995804;28;8899;-65
2022/03/16 04:32:21;;;;;;;;;126.00;122.00;16.10;37.60;;;;;;4996176;28;9450;-64
2022/03/16 04:34:47;;;;;;;;;133.00;121.50;16.10;37.80;;;;;;4995905;28;8853;-66
2022/03/16 04:37:13;;;;;;;;;99.25;91.50;16.10;37.70;;;;;;4995870;28;8776;-65
2022/03/16 04:39:39;;;;;;;;;105.00;96.25;16.10;37.70;;;;;;4995708;28;8777;-65
2022/03/16 04:42:05;;;;;;;;;111.50;103.50;16.10;37.50;;;;;;4995688;28;8823;-66
2022/03/16 04:44:31;;;;;;;;;116.25;107.50;16.10;38.00;;;;;;4995707;28;8804;-65
2022/03/16 04:46:57;;;;;;;;;112.75;107.25;16.20;38.50;;;;;;4995618;28;8887;-64
2022/03/16 04:49:23;;;;;;;;;120.50;109.25;16.20;38.50;;;;;;4995830;28;8783;-64
2022/03/16 04:51:48;;;;;;;;;110.25;101.75;16.20;38.70;;;;;;4995567;28;8776;-66
2022/03/16 04:54:17;;;;;;;;;129.50;116.50;16.10;38.30;;;;;;4995405;28;9495;-65
2022/03/16 04:56:43;;;;;;;;;117.00;110.50;15.90;39.40;;;;;;4995773;28;8777;-65
2022/03/16 04:59:09;;;;;;;;;117.75;107.50;15.50;39.70;;;;;;4995970;28;8800;-65
2022/03/16 05:01:35;;;;;;;;;134.75;122.50;15.50;40.00;;;;;;4995408;28;9386;-65
2022/03/16 05:04:01;;;;;;;;;130.50;122.25;15.50;39.60;;;;;;4995352;28;8878;-66
2022/03/16 05:06:27;;;;;;;;;134.00;124.25;15.40;39.30;;;;;;4995254;28;8788;-66
2022/03/16 05:08:52;;;;;;;;;125.00;115.00;15.70;38.60;;;;;;4995575;28;8772;-65
2022/03/16 05:11:22;;;;;;;;;109.25;100.50;15.80;38.70;;;;;;4995461;28;8780;-64
2022/03/16 05:13:49;;;;;;;;;120.00;112.25;15.90;38.00;;;;;;4995447;28;8792;-66
2022/03/16 05:16:16;;;;;;;;;109.75;100.00;15.90;37.50;;;;;;4995404;28;9459;-64
2022/03/16 05:18:44;;;;;;;;;116.00;108.50;15.90;37.60;;;;;;4995200;28;8784;-64
2022/03/16 05:21:10;;;;;;;;;121.00;112.25;15.90;37.70;;;;;;4994863;28;8784;-64
2022/03/16 05:23:37;;;;;;;;;108.00;103.25;15.90;37.20;;;;;;4995156;28;8863;-64
2022/03/16 05:26:03;;;;;;;;;121.50;115.75;15.70;37.40;;;;;;4995048;28;8773;-64
2022/03/16 05:28:29;;;;;;;;;115.50;107.25;15.70;38.00;;;;;;4995027;28;8764;-64
2022/03/16 05:30:54;;;;;;;;;123.75;112.75;15.80;37.90;;;;;;4995250;28;8804;-65
2022/03/16 05:33:22;;;;;;;;;132.25;119.00;15.80;37.70;;;;;;4994870;28;8811;-65
2022/03/16 05:35:48;;;;;;;;;113.00;107.50;15.90;37.90;;;;;;4994920;28;8800;-64
2022/03/16 05:38:14;;;;;;;;;123.25;114.25;15.90;38.10;;;;;;4994915;28;8885;-67
2022/03/16 05:40:40;;;;;;;;;139.50;126.50;15.80;37.90;;;;;;4993858;28;8756;-64
2022/03/16 05:43:06;;;;;;;;;165.75;148.25;15.80;38.40;;;;;;4994459;28;8824;-65
2022/03/16 05:45:32;;;;;;;;;164.75;149.50;15.80;38.50;;;;;;4994846;28;8769;-64
2022/03/16 05:47:58;;;;;;;;;153.25;137.50;15.60;38.70;;;;;;4995011;28;8859;-65
2022/03/16 05:50:29;;;;;;;;;146.25;131.25;15.80;38.90;;;;;;4994764;28;8800;-65
2022/03/16 05:52:59;;;;;;;;;135.25;123.25;15.80;38.70;;;;;;4994768;28;8895;-65
2022/03/16 05:55:26;;;;;;;;;130.25;129.00;15.90;39.00;;;;;;4994568;28;8843;-65
2022/03/16 05:57:52;;;;;;;;;140.75;131.00;15.90;38.70;;;;;;4995036;28;8776;-64
2022/03/16 06:00:22;;;;;;;;;144.25;129.50;16.00;37.60;;;;;;4994972;28;8850;-63
2022/03/16 06:02:49;;;;;;;;;133.75;126.25;15.60;38.60;;;;;;4994582;28;8780;-65
2022/03/16 06:05:16;;;;;;;;;142.75;127.75;15.70;39.30;;;;;;4994825;28;8784;-66
2022/03/16 06:07:43;;;;;;;;;124.75;115.50;15.80;39.70;;;;;;4994806;28;9442;-67
2022/03/16 06:10:12;;;;;;;;;131.75;123.25;15.90;39.30;;;;;;4994732;28;8915;-68
2022/03/16 06:12:59;;;;;;;;;133.25;122.50;16.00;38.50;;;;;;4994609;28;8795;-68
2022/03/16 06:15:26;;;;;;;;;159.50;151.25;16.10;38.40;;;;;;4994059;28;8792;-66
2022/03/16 06:17:54;;;;;;;;;156.00;141.00;16.10;37.60;;;;;;4994526;28;8899;-68
2022/03/16 06:20:20;;;;;;;;;188.50;171.50;16.10;37.60;;;;;;4994810;28;8846;-66
2022/03/16 06:22:46;;;;;;;;;215.00;194.50;16.10;37.60;;;;;;4994422;28;8793;-66
2022/03/16 06:25:12;;;;;;;;;184.75;170.50;16.20;38.10;;;;;;4994750;28;8793;-68
2022/03/16 06:27:38;;;;;;;;;185.25;166.00;16.10;37.40;;;;;;4994420;28;8784;-66
2022/03/16 06:30:04;;;;;;;;;195.00;174.00;16.00;37.60;;;;;;4994098;28;8886;-68
2022/03/16 06:32:30;;;;;;;;;195.00;184.50;16.10;37.80;;;;;;4994434;28;8768;-67
2022/03/16 06:34:56;;;;;;;;;213.00;195.75;16.30;37.70;;;;;;4994318;28;8788;-68
2022/03/16 06:37:22;;;;;;;;;202.50;186.25;16.30;37.40;;;;;;4994635;28;8883;-68
2022/03/16 06:39:47;;;;;;;;;203.75;183.75;16.30;37.40;;;;;;4994334;28;8800;-68
2022/03/16 06:42:13;;;;;;;;;176.75;162.00;16.40;38.00;;;;;;4994597;28;8803;-68
2022/03/16 06:44:39;;;;;;;;;174.50;163.25;16.50;37.50;;;;;;4994461;28;8793;-67
2022/03/16 06:47:05;;;;;;;;;174.25;158.25;16.50;36.80;;;;;;4994121;28;8780;-66
2022/03/16 06:49:31;;;;;;;;;161.25;151.50;16.60;36.40;;;;;;4994365;28;8903;-69
2022/03/16 06:51:57;;;;;;;;;152.00;140.75;16.60;37.40;;;;;;4995578;28;8781;-68
2022/03/16 06:54:23;;;;;;;;;115.50;110.75;16.60;36.40;;;;;;4997100;28;8840;-67
2022/03/16 06:56:48;;;;;;;;;110.50;101.75;16.10;35.10;;;;;;4997751;28;8788;-66
2022/03/16 06:59:14;;;;;;;;;118.75;113.75;16.20;34.30;;;;;;4997633;28;8916;-67
2022/03/16 07:01:40;;;;;;;;;124.25;119.00;16.30;33.90;;;;;;4997705;28;8803;-67
2022/03/16 07:04:06;;;;;;;;;125.25;116.75;16.50;34.40;;;;;;4997690;28;8820;-67
2022/03/16 07:06:31;;;;;;;;;135.25;123.00;16.70;34.70;;;;;;4997444;28;8823;-67
2022/03/16 07:08:57;;;;;;;;;130.75;121.00;16.80;34.60;;;;;;5000611;28;9428;-66
2022/03/16 07:11:23;;;;;;;;;125.50;116.25;17.00;34.80;;;;;;5017062;28;8884;-69
2022/03/16 07:16:34;;;;;;;;;117.00;108.50;17.20;34.30;;;;;;5017073;28;8762;-67
2022/03/16 07:19:00;;;;;;;;;115.25;106.75;16.50;34.30;;;;;;5017004;28;8777;-67
2022/03/16 07:21:26;;;;;;;;;111.50;104.75;16.70;34.50;;;;;;5000601;28;8826;-67
2022/03/16 07:23:52;;;;;;;;;126.50;112.50;16.80;34.90;;;;;;4997309;28;8840;-68
2022/03/16 07:26:18;;;;;;;;;108.25;100.00;16.70;35.00;;;;;;4997420;28;8772;-67
2022/03/16 07:28:44;;;;;;;;;98.50;94.25;16.50;36.40;;;;;;4997165;28;8792;-68
2022/03/16 07:31:09;;;;;;;;;93.00;86.25;15.80;36.10;;;;;;4996644;28;8819;-68
2022/03/16 07:33:35;;;;;;;;;105.50;98.25;15.50;37.20;;;;;;4997068;28;8780;-67
2022/03/16 07:36:02;;;;;;;;;88.50;83.50;15.90;37.50;;;;;;4997017;28;8868;-68
2022/03/16 07:38:28;;;;;;;;;79.75;69.00;16.20;36.70;;;;;;4997160;28;8783;-68
2022/03/16 07:40:54;;;;;;;;;83.25;77.75;15.60;37.30;;;;;;4996558;28;8808;-69
2022/03/16 07:43:20;;;;;;;;;80.25;75.25;15.00;39.00;;;;;;4996994;28;8808;-66
2022/03/16 07:45:46;;;;;;;;;82.00;72.00;15.00;39.90;;;;;;4996970;28;8768;-65
2022/03/16 07:48:12;;;;;;;;;89.00;80.75;15.10;39.80;;;;;;4996762;28;8795;-67
2022/03/16 07:50:38;;;;;;;;;82.75;76.75;15.40;39.30;;;;;;4996766;28;8798;-66
2022/03/16 07:53:04;;;;;;;;;81.50;77.25;15.80;39.00;;;;;;4996475;28;9455;-68
2022/03/16 07:55:30;;;;;;;;;83.50;69.00;16.30;38.10;;;;;;4996537;28;8851;-67
2022/03/16 07:57:55;;;;;;;;;84.00;75.50;16.70;37.60;;;;;;4996619;28;8780;-67
2022/03/16 08:00:22;;;;;;;;;77.75;67.50;16.40;38.10;;;;;;4996044;28;8978;-67
2022/03/16 08:02:48;;;;;;;;;83.75;77.75;16.50;37.70;;;;;;4995315;28;8765;-66
2022/03/16 08:05:15;;;;;;;;;86.00;78.00;16.30;38.80;;;;;;4995879;28;8885;-66
2022/03/16 08:07:41;;;;;;;;;77.50;69.25;16.20;39.00;;;;;;4996271;28;8789;-68
2022/03/16 08:10:08;;;;;;;;;84.25;74.00;16.50;38.90;;;;;;5007187;28;8762;-68
2022/03/16 08:12:34;;;;;;;;;75.25;65.00;16.40;39.10;;;;;;5005571;28;8815;-68
2022/03/16 08:15:00;;;;;;;;;76.25;62.75;16.90;38.20;;;;;;5012851;28;8770;-70
2022/03/16 08:17:27;;;;;;;;;70.00;56.25;16.70;38.50;;;;;;5015818;28;8781;-68
2022/03/16 08:19:53;;;;;;;;;70.50;55.75;17.00;38.10;;;;;;5015747;28;8794;-67
2022/03/16 08:22:30;;;;;;;;;69.75;55.25;17.20;38.20;;;;;;5014643;28;8891;-67
2022/03/16 08:24:58;;;;;;;;;63.75;50.50;17.20;38.30;;;;;;5015886;28;8852;-66
2022/03/16 08:27:24;;;;;;;;;58.00;47.00;17.10;38.10;;;;;;5015830;28;8876;-65
2022/03/16 08:29:51;;;;;;;;;63.25;50.00;16.70;37.90;;;;;;5015619;28;8802;-67
2022/03/16 08:32:17;;;;;;;;;57.50;47.75;16.60;37.90;;;;;;5015555;28;8770;-68
2022/03/16 08:34:43;;;;;;;;;52.25;43.75;16.40;37.20;;;;;;5015646;28;8865;-66
2022/03/16 08:37:19;;;;;;;;;45.75;39.25;16.40;36.30;;;;;;5015581;28;8779;-66
2022/03/16 08:39:46;;;;;;;;;46.75;38.50;16.10;36.10;;;;;;5012394;28;8889;-67
2022/03/16 08:42:12;;;;;;;;;55.25;43.50;16.40;35.70;;;;;;5015573;28;8908;-67
2022/03/16 08:44:39;;;;;;;;;46.75;39.50;16.10;35.30;;;;;;5015658;28;8789;-68
2022/03/16 08:47:06;;;;;;;;;49.00;41.50;15.60;36.20;;;;;;5015283;28;8794;-68
2022/03/16 08:49:31;;;;;;;;;43.75;38.00;15.50;36.90;;;;;;5015655;28;8781;-68
2022/03/16 08:51:58;;;;;;;;;46.25;39.50;15.40;37.20;;;;;;5015312;28;8863;-69
2022/03/16 08:54:25;;;;;;;;;48.25;41.25;15.70;36.70;;;;;;5015133;28;8848;-69
2022/03/16 08:56:52;;;;;;;;;43.75;37.75;15.70;36.20;;;;;;5015366;28;8766;-69
2022/03/16 08:59:19;;;;;;;;;47.50;39.75;15.60;36.10;;;;;;5015172;28;8799;-68
2022/03/16 09:01:45;;;;;;;;;48.25;40.00;16.00;35.80;;;;;;5015354;28;8892;-68
2022/03/16 09:04:11;;;;;;;;;43.50;37.00;16.50;34.60;;;;;;5015032;28;9519;-68
2022/03/16 09:06:37;;;;;;;;;46.75;40.00;16.20;34.10;;;;;;5015066;28;8766;-68
2022/03/16 09:09:03;;;;;;;;;50.25;41.50;16.10;34.90;;;;;;5014988;28;8774;-65
2022/03/16 09:11:29;;;;;;;;;46.50;39.00;16.50;33.90;;;;;;5014836;28;8782;-67
2022/03/16 09:13:55;;;;;;;;;42.50;35.50;16.00;34.20;;;;;;5014676;28;8816;-69
2022/03/16 09:16:21;;;;;;;;;42.50;36.25;16.00;34.50;;;;;;5014962;28;8758;-70
2022/03/16 09:18:48;;;;;;;;;43.25;37.00;16.20;34.00;;;;;;5014896;28;8773;-67
2022/03/16 09:21:14;;;;;;;;;35.75;32.00;16.60;33.00;;;;;;5014674;28;9192;-66
2022/03/16 09:23:40;;;;;;;;;36.50;32.50;16.60;32.60;;;;;;5013591;28;8833;-65
2022/03/16 09:26:07;;;;;;;;;38.75;34.50;16.00;32.30;;;;;;5014615;28;8860;-65
2022/03/16 09:28:33;;;;;;;;;41.50;35.25;16.00;33.30;;;;;;5014564;28;8782;-68
2022/03/16 09:30:59;;;;;;;;;37.00;33.50;16.40;32.20;;;;;;5014646;28;8770;-70
2022/03/16 09:33:25;;;;;;;;;34.50;31.25;16.40;31.80;;;;;;5014321;28;8803;-72
2022/03/16 09:35:52;;;;;;;;;32.00;29.50;16.00;31.90;;;;;;5014546;28;8778;-69
2022/03/16 09:38:19;;;;;;;;;34.75;32.25;16.00;33.00;;;;;;5014559;28;8801;-69
2022/03/16 09:40:52;;;;;;;;;30.75;30.00;15.80;33.20;;;;;;5014536;28;8789;-73
2022/03/16 09:43:19;;;;;;;;;33.25;31.00;15.70;33.90;;;;;;5014827;28;8857;-72
2022/03/16 09:45:53;;;;;;;;;27.75;27.25;15.80;33.80;;;;;;5014870;28;8789;-70
2022/03/16 09:48:21;;;;;;;;;27.00;25.25;16.00;33.40;;;;;;5014696;28;8931;-72
2022/03/16 09:50:48;;;;;;;;;30.75;29.00;16.00;33.20;;;;;;4990943;28;8803;-72
2022/03/16 09:53:15;;;;;;;;;33.00;31.00;16.30;33.00;;;;;;4982556;28;8795;-73
2022/03/16 09:55:41;;;;;;;;;28.25;27.00;16.40;32.80;;;;;;4975440;28;8803;-69
2022/03/16 09:58:07;;;;;;;;;26.50;26.25;16.40;33.10;;;;;;4975657;28;8905;-74
2022/03/16 10:00:33;;;;;;;;;32.25;27.75;16.30;33.60;;;;;;4975392;28;8783;-73
2022/03/16 10:03:02;;;;;;;;;30.67;29.67;16.40;33.30;;;;;;4977280;28;8787;-72
2022/03/16 10:05:29;;;;;;;;;33.75;31.75;16.40;34.00;;;;;;4994024;28;8816;-72
2022/03/16 10:07:59;;;;;;;;;30.25;30.25;16.70;33.70;;;;;;4994659;28;8808;-73
2022/03/16 10:13:24;;;;;;;;;30.75;29.25;16.60;35.00;;;;;;4994598;28;8768;-68
2022/03/16 10:16:08;;;;;;;;;39.25;33.25;17.00;34.80;;;;;;4994698;28;8785;-68
2022/03/16 10:18:36;;;;;;;;;34.25;29.75;17.30;34.60;;;;;;4994631;28;8903;-73
2022/03/16 10:21:03;;;;;;;;;38.50;34.50;17.30;34.80;;;;;;4994833;28;8765;-73
2022/03/16 10:23:30;;;;;;;;;47.50;39.25;17.10;35.50;;;;;;4994612;28;8877;-70
2022/03/16 10:25:59;;;;;;;;;40.50;35.75;17.10;37.50;;;;;;4994585;28;8764;-73
2022/03/16 10:28:33;;;;;;;;;45.00;36.50;17.30;36.80;;;;;;4996624;28;8774;-71
2022/03/16 10:31:05;;;;;;;;;37.50;35.00;17.00;38.10;;;;;;4998533;28;8802;-70
2022/03/16 10:33:35;;;;;;;;;44.75;39.50;16.80;37.80;;;;;;4998242;28;8765;-66
2022/03/16 10:36:09;;;;;;;;;48.50;39.00;16.80;38.90;;;;;;4998171;28;8875;-69
2022/03/16 10:38:47;;;;;;;;;46.25;38.25;17.00;38.20;;;;;;4998123;28;8792;-66
2022/03/16 10:47:14;;;;;;;;;31.50;30.75;16.20;40.30;;;;;;4998040;28;8760;-70
2022/03/16 10:49:41;;;;;;;;;30.00;30.00;15.80;43.10;;;;;;4997957;28;8851;-69
2022/03/16 10:52:10;;;;;;;;;25.50;23.25;15.90;42.30;;;;;;4997851;28;8772;-68
2022/03/16 10:54:37;;;;;;;;;31.25;29.00;15.60;42.80;;;;;;4997623;28;8840;-73
2022/03/16 10:57:14;;;;;;;;;31.00;29.00;15.80;43.10;;;;;;4997800;28;8850;-74
2022/03/16 10:59:50;;;;;;;;;37.00;33.00;15.70;43.20;;;;;;4996830;28;8823;-71
2022/03/16 11:02:18;;;;;;;;;36.50;32.25;16.10;43.20;;;;;;4997962;28;9510;-70
2022/03/16 11:04:45;;;;;;;;;34.50;33.50;16.50;42.30;;;;;;4997805;28;8804;-71
2022/03/16 11:07:11;;;;;;;;;39.25;34.25;16.90;40.80;;;;;;4997462;28;8784;-70
2022/03/16 11:09:38;;;;;;;;;41.50;35.50;16.40;40.80;;;;;;4997455;28;8788;-69
2022/03/16 11:14:51;;;;;;;;;42.50;36.00;16.70;41.30;;;;;;4997440;28;9426;-67
2022/03/16 11:17:18;;;;;;;;;44.75;38.25;17.10;41.60;;;;;;4997363;28;8862;-70
2022/03/16 11:19:47;;;;;;;;;39.50;35.00;16.90;40.70;;;;;;4997490;28;8800;-68
2022/03/16 11:25:43;;;;;;;;;48.00;40.25;16.90;42.00;;;;;;4996003;28;8856;-72
2022/03/16 11:28:14;;;;;;;;;48.00;41.00;17.10;43.30;;;;;;4997234;28;8839;-69
2022/03/16 11:30:39;;;;;;;;;50.00;42.50;17.20;43.30;;;;;;4997225;28;8819;-68
2022/03/16 11:33:15;;;;;;;;;50.25;40.25;17.60;42.60;;;;;;4997370;28;8788;-69
2022/03/16 11:35:50;;;;;;;;;53.25;42.00;17.70;41.90;;;;;;4997121;28;8803;-69
2022/03/16 11:38:17;;;;;;;;;51.75;43.75;17.10;43.00;;;;;;4997136;28;8795;-70
2022/03/16 11:40:50;;;;;;;;;49.25;40.50;16.90;44.40;;;;;;5006638;28;8798;-70
2022/03/16 11:43:18;;;;;;;;;44.00;37.75;16.80;44.70;;;;;;5004382;28;8840;-70
2022/03/16 11:45:54;;;;;;;;;42.50;36.25;16.40;45.20;;;;;;5015290;28;8774;-71
2022/03/16 11:48:33;;;;;;;;;43.50;35.75;16.40;45.80;;;;;;5016358;28;8897;-70
2022/03/16 11:51:20;;;;;;;;;45.25;38.50;16.80;45.40;;;;;;5016367;28;8762;-70
2022/03/16 11:53:57;;;;;;;;;38.00;33.75;17.10;44.60;;;;;;5008418;28;8877;-73
2022/03/16 11:56:36;;;;;;;;;44.25;37.00;17.10;43.60;;;;;;5014491;28;8808;-71
2022/03/16 11:59:27;;;;;;;;;45.75;39.00;17.20;43.60;;;;;;5015710;28;8794;-71
2022/03/16 12:02:12;;;;;;;;;41.50;36.00;17.40;43.30;;;;;;5010636;28;8770;-70
2022/03/16 12:04:43;;;;;;;;;38.75;36.50;17.40;42.50;;;;;;5016050;28;8852;-70
2022/03/16 12:07:14;;;;;;;;;42.75;38.00;17.40;43.10;;;;;;5016023;28;8892;-70
2022/03/16 12:09:41;;;;;;;;;46.00;36.00;17.20;44.60;;;;;;5016021;28;8831;-70
2022/03/16 12:15:03;;;;;;;;;42.50;37.00;17.70;42.60;;;;;;5016064;28;8758;-69
2022/03/16 12:17:29;;;;;;;;;40.25;35.00;17.90;42.30;;;;;;5016076;28;8777;-69
2022/03/16 12:20:14;;;;;;;;;45.50;37.50;17.90;41.90;;;;;;5015873;28;8766;-70
2022/03/16 12:22:44;;;;;;;;;41.25;35.00;18.10;42.00;;;;;;5015713;28;8828;-69
2022/03/16 12:25:26;;;;;;;;;40.75;35.00;17.90;42.10;;;;;;5016129;28;8923;-69
2022/03/16 12:30:47;;;;;;;;;42.00;37.75;18.20;41.30;;;;;;5015825;28;8845;-71
2022/03/16 12:33:19;;;;;;;;;39.25;36.25;18.20;40.70;;;;;;5015987;28;8769;-71
2022/03/16 12:35:49;;;;;;;;;44.50;36.25;18.30;41.40;;;;;;5015628;28;8809;-70
2022/03/16 12:38:15;;;;;;;;;38.25;34.50;17.90;41.30;;;;;;5015460;28;8794;-71
2022/03/16 12:43:46;;;;;;;;;34.50;32.75;17.20;41.70;;;;;;4993746;28;8818;-72
2022/03/16 12:46:35;;;;;;;;;35.50;33.00;16.90;42.70;;;;;;4993824;28;8777;-70
2022/03/16 12:49:07;;;;;;;;;41.50;36.00;17.10;42.10;;;;;;4993200;28;8787;-71
2022/03/16 12:51:45;;;;;;;;;40.75;34.75;17.50;41.50;;;;;;4979313;28;9413;-75
2022/03/16 12:54:20;;;;;;;;;40.75;35.75;17.40;41.80;;;;;;4972802;28;8964;-71
2022/03/16 12:56:52;;;;;;;;;41.75;37.50;17.10;41.70;;;;;;4969156;28;8806;-72